sensor_id;sensor_type;location;lat;lon;timestamp;P1;durP1;ratioP1;P2;durP2;ratioP2
79480;SDS011;68944;48.262;14.208;2023-11-19T00:02:21;13.77;;;6.95;;
79480;SDS011;68944;48.262;14.208;2023-11-19T00:04:47;14.05;;;7.20;;
79480;SDS011;68944;48.262;14.208;2023-11-19T00:07:13;13.73;;;7.22;;
79480;SDS011;68944;48.262;14.208;2023-11-19T00:09:39;12.23;;;6.90;;
79480;SDS011;68944;48.262;14.208;2023-11-19T00:12:05;12.57;;;7.07;;
79480;SDS011;68944;48.262;14.208;2023-11-19T00:14:31;12.93;;;7.15;;
79480;SDS011;68944;48.262;14.208;2023-11-19T00:16:57;16.30;;;6.68;;
79480;SDS011;68944;48.262;14.208;2023-11-19T00:19:23;13.20;;;7.00;;
79480;SDS011;68944;48.262;14.208;2023-11-19T00:21:48;14.30;;;7.22;;
79480;SDS011;68944;48.262;14.208;2023-11-19T00:24:14;13.13;;;6.30;;
79480;SDS011;68944;48.262;14.208;2023-11-19T00:26:42;13.88;;;7.70;;
79480;SDS011;68944;48.262;14.208;2023-11-19T00:29:07;12.65;;;6.40;;
79480;SDS011;68944;48.262;14.208;2023-11-19T00:31:33;14.60;;;7.65;;
79480;SDS011;68944;48.262;14.208;2023-11-19T00:33:59;14.57;;;8.15;;
79480;SDS011;68944;48.262;14.208;2023-11-19T00:36:24;13.73;;;7.45;;
79480;SDS011;68944;48.262;14.208;2023-11-19T00:38:50;13.55;;;7.45;;
79480;SDS011;68944;48.262;14.208;2023-11-19T00:41:18;13.13;;;7.30;;
79480;SDS011;68944;48.262;14.208;2023-11-19T00:43:44;14.60;;;7.50;;
79480;SDS011;68944;48.262;14.208;2023-11-19T00:46:10;12.15;;;6.60;;
79480;SDS011;68944;48.262;14.208;2023-11-19T00:48:41;12.77;;;7.05;;
79480;SDS011;68944;48.262;14.208;2023-11-19T00:51:07;14.10;;;7.68;;
79480;SDS011;68944;48.262;14.208;2023-11-19T00:53:33;13.27;;;7.05;;
79480;SDS011;68944;48.262;14.208;2023-11-19T00:56:00;12.30;;;7.32;;
79480;SDS011;68944;48.262;14.208;2023-11-19T00:58:25;12.95;;;6.47;;
79480;SDS011;68944;48.262;14.208;2023-11-19T01:00:52;14.05;;;7.25;;
79480;SDS011;68944;48.262;14.208;2023-11-19T01:03:17;14.27;;;7.65;;
79480;SDS011;68944;48.262;14.208;2023-11-19T01:05:43;15.75;;;7.93;;
79480;SDS011;68944;48.262;14.208;2023-11-19T01:08:09;13.60;;;7.60;;
79480;SDS011;68944;48.262;14.208;2023-11-19T01:10:36;12.52;;;6.30;;
79480;SDS011;68944;48.262;14.208;2023-11-19T01:13:02;12.63;;;6.57;;
79480;SDS011;68944;48.262;14.208;2023-11-19T01:15:31;11.88;;;6.32;;
79480;SDS011;68944;48.262;14.208;2023-11-19T01:17:57;14.55;;;8.13;;
79480;SDS011;68944;48.262;14.208;2023-11-19T01:20:22;11.02;;;6.13;;
79480;SDS011;68944;48.262;14.208;2023-11-19T01:22:48;12.60;;;7.60;;
79480;SDS011;68944;48.262;14.208;2023-11-19T01:25:13;12.48;;;6.68;;
79480;SDS011;68944;48.262;14.208;2023-11-19T01:27:39;11.77;;;6.88;;
79480;SDS011;68944;48.262;14.208;2023-11-19T01:30:05;13.85;;;6.82;;
79480;SDS011;68944;48.262;14.208;2023-11-19T01:32:34;12.73;;;6.72;;
79480;SDS011;68944;48.262;14.208;2023-11-19T01:35:02;12.15;;;6.28;;
79480;SDS011;68944;48.262;14.208;2023-11-19T01:37:29;11.68;;;6.20;;
79480;SDS011;68944;48.262;14.208;2023-11-19T01:39:54;12.85;;;8.07;;
79480;SDS011;68944;48.262;14.208;2023-11-19T01:42:20;12.88;;;7.75;;
79480;SDS011;68944;48.262;14.208;2023-11-19T01:44:56;13.05;;;6.72;;
79480;SDS011;68944;48.262;14.208;2023-11-19T01:47:23;12.60;;;6.35;;
79480;SDS011;68944;48.262;14.208;2023-11-19T01:49:49;12.95;;;6.93;;
79480;SDS011;68944;48.262;14.208;2023-11-19T01:52:17;12.98;;;6.82;;
79480;SDS011;68944;48.262;14.208;2023-11-19T01:54:43;12.95;;;7.78;;
79480;SDS011;68944;48.262;14.208;2023-11-19T01:57:11;12.38;;;7.90;;
79480;SDS011;68944;48.262;14.208;2023-11-19T01:59:38;12.30;;;7.13;;
79480;SDS011;68944;48.262;14.208;2023-11-19T02:02:04;12.50;;;7.43;;
79480;SDS011;68944;48.262;14.208;2023-11-19T02:04:31;11.82;;;6.88;;
79480;SDS011;68944;48.262;14.208;2023-11-19T02:06:57;12.82;;;6.82;;
79480;SDS011;68944;48.262;14.208;2023-11-19T02:09:24;12.00;;;6.25;;
79480;SDS011;68944;48.262;14.208;2023-11-19T02:11:49;13.32;;;7.13;;
79480;SDS011;68944;48.262;14.208;2023-11-19T02:14:16;12.10;;;6.90;;
79480;SDS011;68944;48.262;14.208;2023-11-19T02:16:43;13.20;;;6.57;;
79480;SDS011;68944;48.262;14.208;2023-11-19T02:19:08;14.02;;;7.28;;
79480;SDS011;68944;48.262;14.208;2023-11-19T02:21:37;14.02;;;7.40;;
79480;SDS011;68944;48.262;14.208;2023-11-19T02:24:06;13.90;;;7.15;;
79480;SDS011;68944;48.262;14.208;2023-11-19T02:29:17;12.18;;;7.20;;
79480;SDS011;68944;48.262;14.208;2023-11-19T02:31:43;12.00;;;7.13;;
79480;SDS011;68944;48.262;14.208;2023-11-19T02:34:10;14.82;;;7.07;;
79480;SDS011;68944;48.262;14.208;2023-11-19T02:36:37;12.30;;;6.80;;
79480;SDS011;68944;48.262;14.208;2023-11-19T02:39:03;10.77;;;6.38;;
79480;SDS011;68944;48.262;14.208;2023-11-19T02:41:28;13.82;;;6.32;;
79480;SDS011;68944;48.262;14.208;2023-11-19T02:43:54;10.90;;;6.05;;
79480;SDS011;68944;48.262;14.208;2023-11-19T02:46:20;12.25;;;7.22;;
79480;SDS011;68944;48.262;14.208;2023-11-19T02:48:46;12.32;;;6.55;;
79480;SDS011;68944;48.262;14.208;2023-11-19T02:51:12;11.20;;;5.80;;
79480;SDS011;68944;48.262;14.208;2023-11-19T02:53:37;12.10;;;6.38;;
79480;SDS011;68944;48.262;14.208;2023-11-19T02:56:05;11.18;;;6.03;;
79480;SDS011;68944;48.262;14.208;2023-11-19T02:58:45;11.25;;;6.03;;
79480;SDS011;68944;48.262;14.208;2023-11-19T03:01:11;12.40;;;6.68;;
79480;SDS011;68944;48.262;14.208;2023-11-19T03:03:48;12.13;;;6.22;;
79480;SDS011;68944;48.262;14.208;2023-11-19T03:06:19;11.40;;;6.13;;
79480;SDS011;68944;48.262;14.208;2023-11-19T03:08:44;13.45;;;7.20;;
79480;SDS011;68944;48.262;14.208;2023-11-19T03:11:10;13.48;;;6.22;;
79480;SDS011;68944;48.262;14.208;2023-11-19T03:13:35;13.32;;;7.07;;
79480;SDS011;68944;48.262;14.208;2023-11-19T03:16:01;12.40;;;6.28;;
79480;SDS011;68944;48.262;14.208;2023-11-19T03:18:26;13.20;;;6.47;;
79480;SDS011;68944;48.262;14.208;2023-11-19T03:20:53;13.10;;;6.78;;
79480;SDS011;68944;48.262;14.208;2023-11-19T03:23:19;11.45;;;6.25;;
79480;SDS011;68944;48.262;14.208;2023-11-19T03:25:44;11.30;;;6.35;;
79480;SDS011;68944;48.262;14.208;2023-11-19T03:28:10;11.98;;;6.20;;
79480;SDS011;68944;48.262;14.208;2023-11-19T03:30:36;12.57;;;6.70;;
79480;SDS011;68944;48.262;14.208;2023-11-19T03:33:02;11.50;;;6.22;;
79480;SDS011;68944;48.262;14.208;2023-11-19T03:35:28;12.98;;;6.88;;
79480;SDS011;68944;48.262;14.208;2023-11-19T03:37:54;13.63;;;7.68;;
79480;SDS011;68944;48.262;14.208;2023-11-19T03:40:19;14.15;;;7.50;;
79480;SDS011;68944;48.262;14.208;2023-11-19T03:42:48;12.57;;;7.57;;
79480;SDS011;68944;48.262;14.208;2023-11-19T03:45:13;12.38;;;6.78;;
79480;SDS011;68944;48.262;14.208;2023-11-19T03:47:41;13.85;;;7.15;;
79480;SDS011;68944;48.262;14.208;2023-11-19T03:50:07;13.13;;;7.15;;
79480;SDS011;68944;48.262;14.208;2023-11-19T03:52:36;11.98;;;6.57;;
79480;SDS011;68944;48.262;14.208;2023-11-19T03:55:01;13.48;;;7.18;;
79480;SDS011;68944;48.262;14.208;2023-11-19T03:57:30;11.38;;;6.30;;
79480;SDS011;68944;48.262;14.208;2023-11-19T03:59:56;12.25;;;6.80;;
79480;SDS011;68944;48.262;14.208;2023-11-19T04:02:23;13.73;;;7.10;;
79480;SDS011;68944;48.262;14.208;2023-11-19T04:04:54;9.82;;;5.20;;
79480;SDS011;68944;48.262;14.208;2023-11-19T04:07:20;10.63;;;5.80;;
79480;SDS011;68944;48.262;14.208;2023-11-19T04:09:45;9.55;;;5.10;;
79480;SDS011;68944;48.262;14.208;2023-11-19T04:12:11;10.85;;;5.13;;
79480;SDS011;68944;48.262;14.208;2023-11-19T04:14:37;8.88;;;4.13;;
79480;SDS011;68944;48.262;14.208;2023-11-19T04:17:03;9.95;;;4.53;;
79480;SDS011;68944;48.262;14.208;2023-11-19T04:19:29;9.93;;;4.97;;
79480;SDS011;68944;48.262;14.208;2023-11-19T04:21:55;11.15;;;4.43;;
79480;SDS011;68944;48.262;14.208;2023-11-19T04:24:23;8.95;;;4.75;;
79480;SDS011;68944;48.262;14.208;2023-11-19T04:26:49;10.23;;;3.95;;
79480;SDS011;68944;48.262;14.208;2023-11-19T04:29:15;9.05;;;4.25;;
79480;SDS011;68944;48.262;14.208;2023-11-19T04:31:45;8.52;;;4.07;;
79480;SDS011;68944;48.262;14.208;2023-11-19T04:34:12;8.45;;;3.78;;
79480;SDS011;68944;48.262;14.208;2023-11-19T04:36:38;9.20;;;4.20;;
79480;SDS011;68944;48.262;14.208;2023-11-19T04:39:04;8.45;;;3.60;;
79480;SDS011;68944;48.262;14.208;2023-11-19T04:41:47;9.07;;;3.60;;
79480;SDS011;68944;48.262;14.208;2023-11-19T04:44:14;8.90;;;4.05;;
79480;SDS011;68944;48.262;14.208;2023-11-19T04:46:41;8.30;;;4.18;;
79480;SDS011;68944;48.262;14.208;2023-11-19T04:49:08;9.00;;;3.45;;
79480;SDS011;68944;48.262;14.208;2023-11-19T04:51:42;8.95;;;4.50;;
79480;SDS011;68944;48.262;14.208;2023-11-19T04:54:12;8.85;;;4.05;;
79480;SDS011;68944;48.262;14.208;2023-11-19T04:56:37;9.07;;;4.38;;
79480;SDS011;68944;48.262;14.208;2023-11-19T04:59:03;9.00;;;4.97;;
79480;SDS011;68944;48.262;14.208;2023-11-19T05:01:31;9.18;;;4.85;;
79480;SDS011;68944;48.262;14.208;2023-11-19T05:03:59;9.23;;;4.78;;
79480;SDS011;68944;48.262;14.208;2023-11-19T05:06:28;9.65;;;4.40;;
79480;SDS011;68944;48.262;14.208;2023-11-19T05:08:58;10.25;;;4.68;;
79480;SDS011;68944;48.262;14.208;2023-11-19T05:13:53;8.93;;;3.90;;
79480;SDS011;68944;48.262;14.208;2023-11-19T05:16:19;9.70;;;4.10;;
79480;SDS011;68944;48.262;14.208;2023-11-19T05:18:46;8.27;;;4.13;;
79480;SDS011;68944;48.262;14.208;2023-11-19T05:21:11;9.82;;;4.18;;
79480;SDS011;68944;48.262;14.208;2023-11-19T05:23:37;8.50;;;4.07;;
79480;SDS011;68944;48.262;14.208;2023-11-19T05:26:04;6.97;;;3.25;;
79480;SDS011;68944;48.262;14.208;2023-11-19T05:28:30;6.68;;;2.92;;
79480;SDS011;68944;48.262;14.208;2023-11-19T05:30:55;7.68;;;3.38;;
79480;SDS011;68944;48.262;14.208;2023-11-19T05:33:21;7.57;;;3.13;;
79480;SDS011;68944;48.262;14.208;2023-11-19T05:35:47;8.55;;;3.28;;
79480;SDS011;68944;48.262;14.208;2023-11-19T05:38:12;6.30;;;2.70;;
79480;SDS011;68944;48.262;14.208;2023-11-19T05:40:38;6.60;;;2.80;;
79480;SDS011;68944;48.262;14.208;2023-11-19T05:43:04;7.80;;;3.40;;
79480;SDS011;68944;48.262;14.208;2023-11-19T05:45:31;7.35;;;3.25;;
79480;SDS011;68944;48.262;14.208;2023-11-19T05:47:57;8.48;;;3.28;;
79480;SDS011;68944;48.262;14.208;2023-11-19T05:50:22;6.63;;;2.85;;
79480;SDS011;68944;48.262;14.208;2023-11-19T05:52:48;7.22;;;2.80;;
79480;SDS011;68944;48.262;14.208;2023-11-19T05:55:13;7.28;;;3.15;;
79480;SDS011;68944;48.262;14.208;2023-11-19T05:57:39;8.38;;;3.17;;
79480;SDS011;68944;48.262;14.208;2023-11-19T06:00:05;7.10;;;3.33;;
79480;SDS011;68944;48.262;14.208;2023-11-19T06:02:36;7.57;;;3.40;;
79480;SDS011;68944;48.262;14.208;2023-11-19T06:05:03;8.63;;;3.55;;
79480;SDS011;68944;48.262;14.208;2023-11-19T06:07:31;9.75;;;4.53;;
79480;SDS011;68944;48.262;14.208;2023-11-19T06:09:57;8.30;;;3.80;;
79480;SDS011;68944;48.262;14.208;2023-11-19T06:12:22;9.52;;;4.00;;
79480;SDS011;68944;48.262;14.208;2023-11-19T06:14:48;9.00;;;3.13;;
79480;SDS011;68944;48.262;14.208;2023-11-19T06:17:13;6.63;;;3.00;;
79480;SDS011;68944;48.262;14.208;2023-11-19T06:19:38;5.75;;;2.47;;
79480;SDS011;68944;48.262;14.208;2023-11-19T06:22:04;6.13;;;2.47;;
79480;SDS011;68944;48.262;14.208;2023-11-19T06:24:30;6.30;;;2.40;;
79480;SDS011;68944;48.262;14.208;2023-11-19T06:26:55;6.15;;;2.58;;
79480;SDS011;68944;48.262;14.208;2023-11-19T06:29:21;6.00;;;2.50;;
79480;SDS011;68944;48.262;14.208;2023-11-19T06:31:46;5.35;;;2.25;;
79480;SDS011;68944;48.262;14.208;2023-11-19T06:34:14;6.82;;;2.60;;
79480;SDS011;68944;48.262;14.208;2023-11-19T06:36:40;7.00;;;2.55;;
79480;SDS011;68944;48.262;14.208;2023-11-19T06:39:06;6.80;;;2.58;;
79480;SDS011;68944;48.262;14.208;2023-11-19T06:41:31;6.78;;;2.42;;
79480;SDS011;68944;48.262;14.208;2023-11-19T06:43:57;6.28;;;2.60;;
79480;SDS011;68944;48.262;14.208;2023-11-19T06:46:22;6.88;;;2.83;;
79480;SDS011;68944;48.262;14.208;2023-11-19T06:48:48;6.43;;;2.60;;
79480;SDS011;68944;48.262;14.208;2023-11-19T06:51:13;6.15;;;2.38;;
79480;SDS011;68944;48.262;14.208;2023-11-19T06:53:39;6.72;;;2.45;;
79480;SDS011;68944;48.262;14.208;2023-11-19T06:56:19;7.38;;;3.00;;
79480;SDS011;68944;48.262;14.208;2023-11-19T06:58:45;6.28;;;2.40;;
79480;SDS011;68944;48.262;14.208;2023-11-19T07:01:10;5.80;;;2.45;;
79480;SDS011;68944;48.262;14.208;2023-11-19T07:03:36;6.22;;;2.30;;
79480;SDS011;68944;48.262;14.208;2023-11-19T07:06:01;5.72;;;2.45;;
79480;SDS011;68944;48.262;14.208;2023-11-19T07:08:29;7.68;;;2.85;;
79480;SDS011;68944;48.262;14.208;2023-11-19T07:10:54;6.88;;;2.95;;
79480;SDS011;68944;48.262;14.208;2023-11-19T07:13:20;6.45;;;2.90;;
79480;SDS011;68944;48.262;14.208;2023-11-19T07:15:46;6.95;;;3.17;;
79480;SDS011;68944;48.262;14.208;2023-11-19T07:18:12;6.68;;;2.90;;
79480;SDS011;68944;48.262;14.208;2023-11-19T07:20:37;7.18;;;3.28;;
79480;SDS011;68944;48.262;14.208;2023-11-19T07:23:03;8.07;;;3.70;;
79480;SDS011;68944;48.262;14.208;2023-11-19T07:25:29;7.68;;;3.58;;
79480;SDS011;68944;48.262;14.208;2023-11-19T07:27:54;7.03;;;3.13;;
79480;SDS011;68944;48.262;14.208;2023-11-19T07:30:20;6.43;;;2.95;;
79480;SDS011;68944;48.262;14.208;2023-11-19T07:32:46;7.57;;;3.13;;
79480;SDS011;68944;48.262;14.208;2023-11-19T07:35:11;6.72;;;2.92;;
79480;SDS011;68944;48.262;14.208;2023-11-19T07:37:37;7.20;;;3.30;;
79480;SDS011;68944;48.262;14.208;2023-11-19T07:40:02;7.25;;;3.30;;
79480;SDS011;68944;48.262;14.208;2023-11-19T07:42:28;7.97;;;3.78;;
79480;SDS011;68944;48.262;14.208;2023-11-19T07:44:54;6.60;;;2.80;;
79480;SDS011;68944;48.262;14.208;2023-11-19T07:47:21;7.32;;;3.17;;
79480;SDS011;68944;48.262;14.208;2023-11-19T07:49:48;7.28;;;3.30;;
79480;SDS011;68944;48.262;14.208;2023-11-19T07:52:15;7.53;;;3.28;;
79480;SDS011;68944;48.262;14.208;2023-11-19T07:54:40;6.85;;;2.92;;
79480;SDS011;68944;48.262;14.208;2023-11-19T07:57:06;6.45;;;2.67;;
79480;SDS011;68944;48.262;14.208;2023-11-19T07:59:31;7.03;;;2.97;;
79480;SDS011;68944;48.262;14.208;2023-11-19T08:01:57;7.10;;;3.22;;
79480;SDS011;68944;48.262;14.208;2023-11-19T08:04:23;6.20;;;2.60;;
79480;SDS011;68944;48.262;14.208;2023-11-19T08:06:49;6.43;;;3.03;;
79480;SDS011;68944;48.262;14.208;2023-11-19T08:09:14;7.30;;;3.20;;
79480;SDS011;68944;48.262;14.208;2023-11-19T08:11:43;9.23;;;3.15;;
79480;SDS011;68944;48.262;14.208;2023-11-19T08:14:08;7.15;;;3.03;;
79480;SDS011;68944;48.262;14.208;2023-11-19T08:16:34;6.78;;;3.00;;
79480;SDS011;68944;48.262;14.208;2023-11-19T08:18:59;6.03;;;2.53;;
79480;SDS011;68944;48.262;14.208;2023-11-19T08:21:26;7.22;;;3.15;;
79480;SDS011;68944;48.262;14.208;2023-11-19T08:23:52;7.65;;;2.83;;
79480;SDS011;68944;48.262;14.208;2023-11-19T08:26:17;5.88;;;2.47;;
79480;SDS011;68944;48.262;14.208;2023-11-19T08:28:43;7.43;;;3.10;;
79480;SDS011;68944;48.262;14.208;2023-11-19T08:31:08;8.10;;;3.20;;
79480;SDS011;68944;48.262;14.208;2023-11-19T08:33:34;6.63;;;3.08;;
79480;SDS011;68944;48.262;14.208;2023-11-19T08:35:59;7.03;;;3.17;;
79480;SDS011;68944;48.262;14.208;2023-11-19T08:38:25;8.70;;;3.63;;
79480;SDS011;68944;48.262;14.208;2023-11-19T08:40:51;7.20;;;3.25;;
79480;SDS011;68944;48.262;14.208;2023-11-19T08:43:17;7.10;;;2.85;;
79480;SDS011;68944;48.262;14.208;2023-11-19T08:45:42;7.18;;;2.53;;
79480;SDS011;68944;48.262;14.208;2023-11-19T08:48:08;5.32;;;2.30;;
79480;SDS011;68944;48.262;14.208;2023-11-19T08:50:34;7.05;;;2.60;;
79480;SDS011;68944;48.262;14.208;2023-11-19T08:53:00;6.65;;;2.22;;
79480;SDS011;68944;48.262;14.208;2023-11-19T08:55:25;7.10;;;3.20;;
79480;SDS011;68944;48.262;14.208;2023-11-19T08:57:51;8.25;;;3.20;;
79480;SDS011;68944;48.262;14.208;2023-11-19T09:00:17;9.40;;;3.80;;
79480;SDS011;68944;48.262;14.208;2023-11-19T09:02:43;8.88;;;3.80;;
79480;SDS011;68944;48.262;14.208;2023-11-19T09:05:08;9.18;;;4.38;;
79480;SDS011;68944;48.262;14.208;2023-11-19T09:07:34;9.85;;;4.25;;
79480;SDS011;68944;48.262;14.208;2023-11-19T09:09:59;10.07;;;3.85;;
79480;SDS011;68944;48.262;14.208;2023-11-19T09:12:25;10.82;;;4.97;;
79480;SDS011;68944;48.262;14.208;2023-11-19T09:14:50;9.85;;;4.38;;
79480;SDS011;68944;48.262;14.208;2023-11-19T09:17:16;10.25;;;4.65;;
79480;SDS011;68944;48.262;14.208;2023-11-19T09:19:43;10.57;;;4.38;;
79480;SDS011;68944;48.262;14.208;2023-11-19T09:22:08;10.27;;;4.30;;
79480;SDS011;68944;48.262;14.208;2023-11-19T09:24:34;10.77;;;4.80;;
79480;SDS011;68944;48.262;14.208;2023-11-19T09:26:59;11.65;;;4.10;;
79480;SDS011;68944;48.262;14.208;2023-11-19T09:29:25;10.65;;;4.22;;
79480;SDS011;68944;48.262;14.208;2023-11-19T09:31:50;11.00;;;4.90;;
79480;SDS011;68944;48.262;14.208;2023-11-19T09:34:16;9.73;;;4.60;;
79480;SDS011;68944;48.262;14.208;2023-11-19T09:36:42;10.68;;;4.30;;
79480;SDS011;68944;48.262;14.208;2023-11-19T09:39:12;9.57;;;3.97;;
79480;SDS011;68944;48.262;14.208;2023-11-19T09:41:41;9.32;;;4.25;;
79480;SDS011;68944;48.262;14.208;2023-11-19T09:44:07;10.63;;;4.90;;
79480;SDS011;68944;48.262;14.208;2023-11-19T09:46:34;9.60;;;4.60;;
79480;SDS011;68944;48.262;14.208;2023-11-19T09:49:00;11.48;;;4.78;;
79480;SDS011;68944;48.262;14.208;2023-11-19T09:51:28;10.80;;;4.50;;
79480;SDS011;68944;48.262;14.208;2023-11-19T09:53:53;8.95;;;4.85;;
79480;SDS011;68944;48.262;14.208;2023-11-19T09:56:19;10.73;;;4.55;;
79480;SDS011;68944;48.262;14.208;2023-11-19T09:58:44;9.85;;;3.78;;
79480;SDS011;68944;48.262;14.208;2023-11-19T10:01:10;9.15;;;3.92;;
79480;SDS011;68944;48.262;14.208;2023-11-19T10:03:37;9.20;;;4.50;;
79480;SDS011;68944;48.262;14.208;2023-11-19T10:06:08;10.27;;;4.30;;
79480;SDS011;68944;48.262;14.208;2023-11-19T10:08:34;9.35;;;4.45;;
79480;SDS011;68944;48.262;14.208;2023-11-19T10:11:02;8.00;;;3.67;;
79480;SDS011;68944;48.262;14.208;2023-11-19T10:13:28;14.80;;;7.22;;
79480;SDS011;68944;48.262;14.208;2023-11-19T10:15:55;20.05;;;11.25;;
79480;SDS011;68944;48.262;14.208;2023-11-19T10:18:25;9.88;;;3.63;;
79480;SDS011;68944;48.262;14.208;2023-11-19T10:20:52;7.75;;;3.30;;
79480;SDS011;68944;48.262;14.208;2023-11-19T10:23:18;8.90;;;3.38;;
79480;SDS011;68944;48.262;14.208;2023-11-19T10:25:43;8.98;;;3.60;;
79480;SDS011;68944;48.262;14.208;2023-11-19T10:28:09;10.45;;;5.05;;
79480;SDS011;68944;48.262;14.208;2023-11-19T10:30:34;10.90;;;5.50;;
79480;SDS011;68944;48.262;14.208;2023-11-19T10:33:09;10.50;;;4.70;;
79480;SDS011;68944;48.262;14.208;2023-11-19T10:35:55;8.80;;;4.03;;
79480;SDS011;68944;48.262;14.208;2023-11-19T10:38:22;9.75;;;3.97;;
79480;SDS011;68944;48.262;14.208;2023-11-19T10:40:48;9.02;;;3.25;;
79480;SDS011;68944;48.262;14.208;2023-11-19T10:43:16;7.10;;;3.22;;
79480;SDS011;68944;48.262;14.208;2023-11-19T10:45:42;9.25;;;3.75;;
79480;SDS011;68944;48.262;14.208;2023-11-19T10:48:08;7.88;;;3.65;;
79480;SDS011;68944;48.262;14.208;2023-11-19T10:50:34;8.43;;;3.70;;
79480;SDS011;68944;48.262;14.208;2023-11-19T10:53:01;8.13;;;3.38;;
79480;SDS011;68944;48.262;14.208;2023-11-19T10:55:32;7.43;;;3.08;;
79480;SDS011;68944;48.262;14.208;2023-11-19T10:58:01;7.90;;;3.25;;
79480;SDS011;68944;48.262;14.208;2023-11-19T11:00:28;8.52;;;3.78;;
79480;SDS011;68944;48.262;14.208;2023-11-19T11:03:01;7.78;;;3.20;;
79480;SDS011;68944;48.262;14.208;2023-11-19T11:05:32;11.90;;;4.20;;
79480;SDS011;68944;48.262;14.208;2023-11-19T11:08:00;8.45;;;3.55;;
79480;SDS011;68944;48.262;14.208;2023-11-19T11:10:27;7.93;;;3.42;;
79480;SDS011;68944;48.262;14.208;2023-11-19T11:12:56;7.95;;;3.25;;
79480;SDS011;68944;48.262;14.208;2023-11-19T11:15:26;8.35;;;3.35;;
79480;SDS011;68944;48.262;14.208;2023-11-19T11:17:57;9.75;;;3.30;;
79480;SDS011;68944;48.262;14.208;2023-11-19T11:20:32;8.05;;;3.33;;
79480;SDS011;68944;48.262;14.208;2023-11-19T11:39:31;8.40;;;3.40;;
79480;SDS011;68944;48.262;14.208;2023-11-19T11:50:09;8.70;;;4.28;;
79480;SDS011;68944;48.262;14.208;2023-11-19T11:58:01;8.20;;;3.55;;
79480;SDS011;68944;48.262;14.208;2023-11-19T12:00:31;8.35;;;3.80;;
79480;SDS011;68944;48.262;14.208;2023-11-19T12:03:05;9.60;;;3.95;;
79480;SDS011;68944;48.262;14.208;2023-11-19T12:05:40;10.95;;;4.78;;
79480;SDS011;68944;48.262;14.208;2023-11-19T12:08:07;8.70;;;3.60;;
79480;SDS011;68944;48.262;14.208;2023-11-19T12:10:37;8.90;;;3.90;;
79480;SDS011;68944;48.262;14.208;2023-11-19T12:13:09;8.38;;;3.45;;
79480;SDS011;68944;48.262;14.208;2023-11-19T12:18:21;8.07;;;3.92;;
79480;SDS011;68944;48.262;14.208;2023-11-19T12:20:48;8.13;;;3.58;;
79480;SDS011;68944;48.262;14.208;2023-11-19T12:23:14;8.23;;;3.30;;
79480;SDS011;68944;48.262;14.208;2023-11-19T12:25:40;7.72;;;3.35;;
79480;SDS011;68944;48.262;14.208;2023-11-19T12:28:11;9.00;;;3.65;;
79480;SDS011;68944;48.262;14.208;2023-11-19T12:30:38;7.22;;;3.25;;
79480;SDS011;68944;48.262;14.208;2023-11-19T12:33:07;8.43;;;3.50;;
79480;SDS011;68944;48.262;14.208;2023-11-19T12:35:38;9.18;;;3.72;;
79480;SDS011;68944;48.262;14.208;2023-11-19T12:38:20;8.05;;;3.60;;
79480;SDS011;68944;48.262;14.208;2023-11-19T12:40:46;8.15;;;3.78;;
79480;SDS011;68944;48.262;14.208;2023-11-19T12:43:21;9.30;;;4.18;;
79480;SDS011;68944;48.262;14.208;2023-11-19T12:45:50;9.57;;;4.05;;
79480;SDS011;68944;48.262;14.208;2023-11-19T12:48:15;9.45;;;4.47;;
79480;SDS011;68944;48.262;14.208;2023-11-19T12:53:20;8.57;;;3.80;;
79480;SDS011;68944;48.262;14.208;2023-11-19T12:55:49;8.00;;;4.05;;
79480;SDS011;68944;48.262;14.208;2023-11-19T12:58:28;8.90;;;4.00;;
79480;SDS011;68944;48.262;14.208;2023-11-19T13:01:07;6.97;;;3.10;;
79480;SDS011;68944;48.262;14.208;2023-11-19T13:03:35;8.02;;;3.50;;
79480;SDS011;68944;48.262;14.208;2023-11-19T13:06:04;8.52;;;3.65;;
79480;SDS011;68944;48.262;14.208;2023-11-19T13:08:36;8.02;;;3.80;;
79480;SDS011;68944;48.262;14.208;2023-11-19T13:11:05;7.88;;;3.75;;
79480;SDS011;68944;48.262;14.208;2023-11-19T13:13:33;7.53;;;3.20;;
79480;SDS011;68944;48.262;14.208;2023-11-19T13:16:15;7.60;;;3.05;;
79480;SDS011;68944;48.262;14.208;2023-11-19T13:18:40;6.72;;;2.88;;
79480;SDS011;68944;48.262;14.208;2023-11-19T13:21:06;7.00;;;3.10;;
79480;SDS011;68944;48.262;14.208;2023-11-19T13:23:31;7.38;;;3.20;;
79480;SDS011;68944;48.262;14.208;2023-11-19T13:25:58;7.95;;;3.60;;
79480;SDS011;68944;48.262;14.208;2023-11-19T13:28:24;9.75;;;3.95;;
79480;SDS011;68944;48.262;14.208;2023-11-19T13:30:51;7.28;;;3.08;;
79480;SDS011;68944;48.262;14.208;2023-11-19T13:33:17;7.63;;;3.30;;
79480;SDS011;68944;48.262;14.208;2023-11-19T13:35:42;6.53;;;2.80;;
79480;SDS011;68944;48.262;14.208;2023-11-19T13:38:08;7.15;;;3.15;;
79480;SDS011;68944;48.262;14.208;2023-11-19T13:40:34;7.75;;;3.50;;
79480;SDS011;68944;48.262;14.208;2023-11-19T13:43:00;8.30;;;3.60;;
79480;SDS011;68944;48.262;14.208;2023-11-19T13:45:25;6.80;;;2.95;;
79480;SDS011;68944;48.262;14.208;2023-11-19T13:47:51;8.90;;;4.00;;
79480;SDS011;68944;48.262;14.208;2023-11-19T13:50:17;8.52;;;3.22;;
79480;SDS011;68944;48.262;14.208;2023-11-19T13:52:43;7.72;;;3.80;;
79480;SDS011;68944;48.262;14.208;2023-11-19T13:55:11;9.07;;;3.60;;
79480;SDS011;68944;48.262;14.208;2023-11-19T13:57:38;10.13;;;4.13;;
79480;SDS011;68944;48.262;14.208;2023-11-19T14:00:04;8.10;;;3.50;;
79480;SDS011;68944;48.262;14.208;2023-11-19T14:02:34;11.05;;;4.28;;
79480;SDS011;68944;48.262;14.208;2023-11-19T14:04:59;9.18;;;3.85;;
79480;SDS011;68944;48.262;14.208;2023-11-19T14:07:25;8.38;;;4.03;;
79480;SDS011;68944;48.262;14.208;2023-11-19T14:09:51;8.90;;;4.38;;
79480;SDS011;68944;48.262;14.208;2023-11-19T14:12:16;9.00;;;4.13;;
79480;SDS011;68944;48.262;14.208;2023-11-19T14:14:42;9.27;;;4.10;;
79480;SDS011;68944;48.262;14.208;2023-11-19T14:17:08;11.63;;;5.78;;
79480;SDS011;68944;48.262;14.208;2023-11-19T14:19:36;11.82;;;5.65;;
79480;SDS011;68944;48.262;14.208;2023-11-19T14:22:02;10.90;;;5.53;;
79480;SDS011;68944;48.262;14.208;2023-11-19T14:24:28;13.00;;;5.80;;
79480;SDS011;68944;48.262;14.208;2023-11-19T14:26:54;13.45;;;6.43;;
79480;SDS011;68944;48.262;14.208;2023-11-19T14:29:19;18.58;;;7.50;;
79480;SDS011;68944;48.262;14.208;2023-11-19T14:31:45;15.10;;;7.50;;
79480;SDS011;68944;48.262;14.208;2023-11-19T14:34:10;14.95;;;8.07;;
79480;SDS011;68944;48.262;14.208;2023-11-19T14:36:35;17.95;;;8.85;;
79480;SDS011;68944;48.262;14.208;2023-11-19T14:39:01;16.23;;;7.13;;
79480;SDS011;68944;48.262;14.208;2023-11-19T14:41:27;15.88;;;7.93;;
79480;SDS011;68944;48.262;14.208;2023-11-19T14:43:52;13.90;;;7.57;;
79480;SDS011;68944;48.262;14.208;2023-11-19T14:46:18;14.35;;;7.28;;
79480;SDS011;68944;48.262;14.208;2023-11-19T14:48:43;14.50;;;7.72;;
79480;SDS011;68944;48.262;14.208;2023-11-19T14:51:09;16.05;;;7.90;;
79480;SDS011;68944;48.262;14.208;2023-11-19T14:53:35;13.80;;;7.22;;
79480;SDS011;68944;48.262;14.208;2023-11-19T14:56:00;17.00;;;8.10;;
79480;SDS011;68944;48.262;14.208;2023-11-19T14:58:26;14.18;;;8.10;;
79480;SDS011;68944;48.262;14.208;2023-11-19T15:00:52;14.70;;;7.38;;
79480;SDS011;68944;48.262;14.208;2023-11-19T15:03:18;15.00;;;7.00;;
79480;SDS011;68944;48.262;14.208;2023-11-19T15:05:47;14.73;;;7.22;;
79480;SDS011;68944;48.262;14.208;2023-11-19T15:08:13;15.05;;;7.78;;